createdAt,value
2023-01-18T00:02:00.123Z,-1.80
2023-01-18T00:04:47.364Z,-1.80
2023-01-18T00:07:34.835Z,-1.60
2023-01-18T00:10:24.787Z,-1.40
2023-01-18T00:13:12.490Z,-1.30
2023-01-18T00:16:03.829Z,-1.60
2023-01-18T00:18:55.605Z,-1.40
2023-01-18T00:21:42.699Z,-1.20
2023-01-18T00:24:30.161Z,-1.20
2023-01-18T00:27:18.922Z,-1.00
2023-01-18T00:30:09.007Z,-1.10
2023-01-18T00:32:58.264Z,-1.30
2023-01-18T00:35:45.542Z,-1.40
2023-01-18T00:38:33.262Z,-1.30
2023-01-18T00:41:21.701Z,-1.20
2023-01-18T00:44:09.705Z,-1.10
2023-01-18T00:46:57.083Z,-1.00
2023-01-18T00:49:44.657Z,-0.90
2023-01-18T00:52:33.722Z,-1.20
2023-01-18T00:55:21.248Z,-1.20
2023-01-18T00:58:08.743Z,-1.20
2023-01-18T01:00:57.664Z,-1.10
2023-01-18T01:04:02.474Z,-0.90
2023-01-18T01:06:49.729Z,-1.10
2023-01-18T01:09:37.196Z,-1.20
2023-01-18T01:12:42.260Z,-1.20
2023-01-18T01:15:46.728Z,-1.10
2023-01-18T01:18:52.797Z,-0.90
2023-01-18T01:21:58.831Z,-1.00
2023-01-18T01:25:03.323Z,-0.90
2023-01-18T01:27:50.521Z,-1.00
2023-01-18T01:30:37.919Z,-1.20
2023-01-18T01:33:25.534Z,-1.00
2023-01-18T01:36:16.533Z,-1.10
2023-01-18T01:39:04.062Z,-1.20
2023-01-18T01:41:51.542Z,-1.20
2023-01-18T01:44:49.583Z,-1.00
2023-01-18T01:47:40.962Z,-0.90
2023-01-18T01:50:32.485Z,-0.90
2023-01-18T01:53:21.393Z,-0.80
2023-01-18T01:56:09.920Z,-0.80
2023-01-18T01:58:59.690Z,-0.80
2023-01-18T02:01:47.925Z,-1.00
2023-01-18T02:04:36.340Z,-0.90
2023-01-18T02:07:26.211Z,-1.00
2023-01-18T02:10:15.036Z,-1.20
2023-01-18T02:13:02.752Z,-1.30
2023-01-18T02:15:58.797Z,-1.20
2023-01-18T02:18:55.463Z,-1.20
2023-01-18T02:21:45.927Z,-1.20
2023-01-18T02:25:02.077Z,-1.00
2023-01-18T02:27:56.751Z,-1.00
2023-01-18T02:30:50.348Z,-0.90
2023-01-18T02:33:45.558Z,-1.00
2023-01-18T02:36:40.745Z,-0.90
2023-01-18T02:39:38.286Z,-0.80
2023-01-18T02:42:46.174Z,-1.00
2023-01-18T02:45:54.118Z,-1.10
2023-01-18T02:48:44.480Z,-0.90
2023-01-18T02:51:32.084Z,-0.70
2023-01-18T02:54:24.887Z,-0.60
2023-01-18T02:57:16.004Z,-0.80
2023-01-18T03:00:05.762Z,-0.90
2023-01-18T03:02:55.502Z,-1.00
2023-01-18T03:05:47.227Z,-1.00
2023-01-18T03:08:38.932Z,-0.90
2023-01-18T03:11:36.838Z,-0.80
2023-01-18T03:14:33.281Z,-0.80
2023-01-18T03:17:26.042Z,-0.90
2023-01-18T03:20:16.754Z,-0.90
2023-01-18T03:23:29.210Z,-0.90
2023-01-18T03:26:20.000Z,-0.90
2023-01-18T03:29:25.401Z,-1.00
2023-01-18T03:32:36.082Z,-0.90
2023-01-18T03:35:26.908Z,-0.80
2023-01-18T03:38:17.414Z,-0.80
2023-01-18T03:41:06.288Z,-0.70
2023-01-18T03:43:57.483Z,-0.80
2023-01-18T03:46:45.081Z,-0.90
2023-01-18T03:49:34.329Z,-1.00
2023-01-18T03:52:25.366Z,-1.00
2023-01-18T03:55:19.262Z,-1.00
2023-01-18T03:58:10.445Z,-0.90
2023-01-18T04:00:57.769Z,-0.90
2023-01-18T04:03:45.098Z,-0.70
2023-01-18T04:06:34.129Z,-0.70
2023-01-18T04:09:21.219Z,-0.60
2023-01-18T04:12:09.977Z,-0.60
2023-01-18T04:14:58.124Z,-0.60
2023-01-18T04:17:45.750Z,-0.70
2023-01-18T04:20:33.411Z,-0.60
2023-01-18T04:23:20.591Z,-0.60
2023-01-18T04:26:08.034Z,-0.50
2023-01-18T04:28:57.071Z,-0.50
2023-01-18T04:31:44.272Z,-0.60
2023-01-18T04:34:31.678Z,-0.80
2023-01-18T04:37:19.113Z,-0.80
2023-01-18T04:40:07.759Z,-0.60
2023-01-18T04:42:56.228Z,-0.60
2023-01-18T04:45:53.978Z,-0.60
2023-01-18T04:48:41.479Z,-0.50
2023-01-18T04:51:31.277Z,-0.60
2023-01-18T04:54:19.601Z,-0.50
2023-01-18T04:57:07.078Z,-0.40
2023-01-18T04:59:54.530Z,-0.50
2023-01-18T05:02:43.226Z,-0.60
2023-01-18T05:05:30.330Z,-0.60
2023-01-18T05:08:17.827Z,-0.60
2023-01-18T05:11:06.654Z,-0.60
2023-01-18T05:13:54.174Z,-0.70
2023-01-18T05:16:41.336Z,-0.70
2023-01-18T05:19:31.430Z,-0.70
2023-01-18T05:22:18.874Z,-0.70
2023-01-18T05:25:06.758Z,-0.80
2023-01-18T05:27:53.859Z,-0.70
2023-01-18T05:30:43.540Z,-0.60
2023-01-18T05:33:30.832Z,-0.50
2023-01-18T05:36:19.678Z,-0.50
2023-01-18T05:39:07.064Z,-0.50
2023-01-18T05:41:54.374Z,-0.50
2023-01-18T05:44:41.838Z,-0.40
2023-01-18T05:47:29.060Z,-0.50
2023-01-18T05:50:16.645Z,-0.50
2023-01-18T05:53:05.430Z,-0.40
2023-01-18T05:55:56.837Z,-0.40
2023-01-18T05:58:44.207Z,-0.20
2023-01-18T06:01:31.765Z,-0.10
2023-01-18T06:04:19.273Z,-0.10
2023-01-18T06:07:06.750Z,-0.20
2023-01-18T06:09:55.513Z,-0.20
2023-01-18T06:12:42.748Z,-0.20
2023-01-18T06:15:29.971Z,-0.20
2023-01-18T06:18:17.505Z,-0.10
2023-01-18T06:21:05.118Z,-0.10
2023-01-18T06:23:52.326Z,-0.20
2023-01-18T06:26:41.235Z,-0.10
2023-01-18T06:29:28.547Z,-0.10
2023-01-18T06:32:15.942Z,-0.10
2023-01-18T06:35:03.409Z,-0.10
2023-01-18T06:37:52.357Z,0.00
2023-01-18T06:40:39.736Z,0.00
2023-01-18T06:43:28.404Z,0.10
2023-01-18T06:46:15.697Z,0.10
2023-01-18T06:49:03.286Z,0.00
2023-01-18T06:51:50.424Z,0.10
2023-01-18T06:54:37.859Z,0.00
2023-01-18T06:57:25.562Z,0.00
2023-01-18T07:00:16.670Z,0.00
2023-01-18T07:03:04.413Z,0.10
2023-01-18T07:05:53.535Z,0.10
2023-01-18T07:08:42.059Z,0.20
2023-01-18T07:11:29.370Z,0.20
2023-01-18T07:14:16.889Z,0.30
2023-01-18T07:17:05.780Z,0.40
2023-01-18T07:19:53.201Z,0.50
2023-01-18T07:22:40.603Z,0.60
2023-01-18T07:25:29.527Z,0.60
2023-01-18T07:28:16.877Z,0.60
2023-01-18T07:31:06.182Z,0.60
2023-01-18T07:33:54.871Z,0.50
2023-01-18T07:36:42.120Z,0.50
2023-01-18T07:39:29.559Z,0.60
2023-01-18T07:42:16.904Z,0.70
2023-01-18T07:45:04.500Z,0.70
2023-01-18T07:47:53.345Z,0.80
2023-01-18T07:50:42.043Z,0.80
2023-01-18T07:53:30.065Z,0.80
2023-01-18T07:56:18.551Z,0.90
2023-01-18T07:59:06.200Z,1.00
2023-01-18T08:01:53.322Z,1.00
2023-01-18T08:05:58.190Z,1.10
2023-01-18T08:08:46.929Z,1.20
2023-01-18T08:11:34.114Z,1.30
2023-01-18T08:14:21.876Z,1.30
2023-01-18T08:17:09.308Z,1.40
2023-01-18T08:19:56.913Z,1.40
2023-01-18T08:22:44.292Z,1.50
2023-01-18T08:25:33.633Z,1.50
2023-01-18T08:28:20.935Z,1.60
2023-01-18T08:31:14.290Z,1.60
2023-01-18T08:34:02.957Z,1.60
2023-01-18T08:36:51.031Z,1.60
2023-01-18T08:39:38.599Z,1.60
2023-01-18T08:42:27.486Z,1.60
2023-01-18T08:45:15.243Z,1.60
2023-01-18T08:48:04.358Z,1.70
2023-01-18T08:50:51.850Z,1.80
2023-01-18T08:53:39.007Z,1.80
2023-01-18T08:56:27.603Z,1.80
2023-01-18T08:59:16.428Z,1.80
2023-01-18T09:02:03.684Z,1.90
2023-01-18T09:04:51.436Z,1.90
2023-01-18T09:07:38.685Z,1.90
2023-01-18T09:10:26.210Z,1.90
2023-01-18T09:13:13.631Z,2.00
2023-01-18T09:16:03.611Z,2.00
2023-01-18T09:18:50.750Z,2.00
2023-01-18T09:21:38.152Z,2.10
2023-01-18T09:24:25.785Z,2.10
2023-01-18T09:27:13.559Z,2.20
2023-01-18T09:30:01.483Z,2.30
2023-01-18T09:32:50.237Z,2.40
2023-01-18T09:35:37.441Z,2.50
2023-01-18T09:38:25.110Z,2.50
2023-01-18T09:41:25.622Z,2.60
2023-01-18T09:44:19.000Z,2.60
2023-01-18T09:47:13.310Z,2.60
2023-01-18T09:50:05.380Z,2.70
2023-01-18T09:53:00.512Z,2.60
2023-01-18T09:55:54.040Z,2.60
2023-01-18T09:58:52.518Z,2.60
2023-01-18T10:01:40.250Z,2.70
2023-01-18T10:04:36.216Z,2.70
2023-01-18T10:07:27.476Z,2.80
2023-01-18T10:10:19.069Z,2.80
2023-01-18T10:13:38.857Z,2.90
2023-01-18T10:16:26.767Z,2.90
2023-01-18T10:19:20.345Z,3.00
2023-01-18T10:22:14.042Z,3.00
2023-01-18T10:25:05.519Z,3.00
2023-01-18T10:28:09.289Z,3.00
2023-01-18T10:31:07.964Z,3.10
2023-01-18T10:33:57.315Z,3.10
2023-01-18T10:36:49.649Z,3.20
2023-01-18T10:39:41.719Z,3.20
2023-01-18T10:42:36.965Z,3.30
2023-01-18T10:45:27.758Z,3.30
2023-01-18T10:48:31.109Z,3.30
2023-01-18T10:51:32.108Z,3.20
2023-01-18T10:54:24.953Z,3.20
2023-01-18T10:57:22.679Z,3.20
2023-01-18T11:00:22.071Z,3.20
2023-01-18T11:03:15.836Z,3.20
2023-01-18T11:06:06.794Z,3.20
2023-01-18T11:08:55.331Z,3.20
2023-01-18T11:11:59.778Z,3.20
2023-01-18T11:14:46.881Z,3.20
2023-01-18T11:17:35.765Z,3.20
2023-01-18T11:20:25.942Z,3.30
2023-01-18T11:23:23.211Z,3.40
2023-01-18T11:26:15.744Z,3.40
2023-01-18T11:29:05.928Z,3.50
2023-01-18T11:31:55.032Z,3.50
2023-01-18T11:34:49.008Z,3.50
2023-01-18T11:37:38.912Z,3.50
2023-01-18T11:40:28.060Z,3.50
2023-01-18T11:43:18.735Z,3.50
2023-01-18T11:46:22.147Z,3.50
2023-01-18T11:49:32.543Z,3.40
2023-01-18T11:52:35.842Z,3.50
2023-01-18T11:55:31.314Z,3.50
2023-01-18T11:58:26.484Z,3.50
2023-01-18T12:01:34.044Z,3.50
2023-01-18T12:04:33.210Z,3.50
2023-01-18T12:07:32.744Z,3.50
2023-01-18T12:10:23.556Z,3.50
2023-01-18T12:13:29.699Z,3.80
2023-01-18T12:16:20.627Z,3.40
2023-01-18T12:19:38.905Z,3.40
2023-01-18T12:22:47.803Z,3.30
2023-01-18T12:26:11.747Z,3.20
2023-01-18T12:29:36.317Z,3.20
2023-01-18T12:32:38.777Z,3.10
2023-01-18T12:35:47.355Z,3.10
2023-01-18T12:38:36.501Z,3.10
2023-01-18T12:41:47.103Z,3.10
2023-01-18T12:44:46.858Z,3.10
2023-01-18T12:47:39.422Z,3.10
2023-01-18T12:50:30.615Z,3.00
2023-01-18T12:53:24.198Z,3.00
2023-01-18T12:56:17.024Z,3.00
2023-01-18T12:59:08.087Z,3.00
2023-01-18T13:02:01.243Z,3.00
2023-01-18T13:04:54.710Z,3.00
2023-01-18T13:07:46.973Z,3.00
2023-01-18T13:10:35.273Z,2.90
2023-01-18T13:13:28.666Z,2.90
2023-01-18T13:16:25.293Z,2.90
2023-01-18T13:19:17.251Z,2.90
2023-01-18T13:22:11.162Z,2.90
2023-01-18T13:25:24.863Z,2.90
2023-01-18T13:28:19.768Z,2.90
2023-01-18T13:31:09.094Z,2.90
2023-01-18T13:33:58.004Z,2.90
2023-01-18T13:36:47.605Z,2.90
2023-01-18T13:39:44.967Z,3.00
2023-01-18T13:42:38.039Z,3.10
2023-01-18T13:45:27.980Z,3.00
2023-01-18T13:48:47.603Z,3.00
2023-01-18T13:51:53.127Z,2.90
2023-01-18T13:55:06.072Z,2.90
2023-01-18T13:57:55.825Z,2.90
2023-01-18T14:00:48.306Z,2.90
2023-01-18T14:03:38.567Z,2.80
2023-01-18T14:06:33.314Z,2.60
2023-01-18T14:09:32.654Z,2.50
2023-01-18T14:12:47.553Z,2.50
2023-01-18T14:15:50.399Z,2.50
2023-01-18T14:18:38.635Z,2.50
2023-01-18T14:21:40.994Z,2.50
2023-01-18T14:24:52.434Z,2.50
2023-01-18T14:27:45.727Z,2.50
2023-01-18T14:30:35.947Z,2.60
2023-01-18T14:33:27.680Z,2.50
2023-01-18T14:36:22.895Z,2.50
2023-01-18T14:39:16.260Z,2.50
2023-01-18T14:42:05.813Z,2.60
2023-01-18T14:44:58.654Z,2.70
2023-01-18T14:47:47.664Z,2.60
2023-01-18T14:50:39.456Z,2.60
2023-01-18T14:53:30.077Z,2.60
2023-01-18T14:56:21.809Z,2.60
2023-01-18T14:59:21.026Z,2.60
2023-01-18T15:02:17.670Z,2.60
2023-01-18T15:05:12.429Z,2.60
2023-01-18T15:08:00.751Z,2.60
2023-01-18T15:10:49.516Z,2.70
2023-01-18T15:13:47.470Z,2.80
2023-01-18T15:16:35.637Z,2.80
2023-01-18T15:19:25.444Z,2.90
2023-01-18T15:22:14.707Z,2.80
2023-01-18T15:25:02.597Z,2.70
2023-01-18T15:27:52.912Z,2.70
2023-01-18T15:30:41.696Z,2.70
2023-01-18T15:33:29.816Z,2.80
2023-01-18T15:36:17.356Z,2.80
2023-01-18T15:39:05.099Z,2.80
2023-01-18T15:41:54.159Z,2.80
2023-01-18T15:44:44.401Z,2.80
2023-01-18T15:47:36.653Z,2.80
2023-01-18T15:50:35.486Z,2.80
2023-01-18T15:53:28.318Z,2.70
2023-01-18T15:56:22.941Z,2.70
2023-01-18T15:59:11.012Z,2.70
2023-01-18T16:02:13.853Z,2.60
2023-01-18T16:05:22.471Z,2.60
2023-01-18T16:08:17.383Z,2.60
2023-01-18T16:11:05.320Z,2.50
2023-01-18T16:13:58.533Z,2.60
2023-01-18T16:16:46.161Z,2.60
2023-01-18T16:19:35.938Z,2.50
2023-01-18T16:22:27.994Z,2.50
2023-01-18T16:25:20.878Z,2.50
2023-01-18T16:28:08.520Z,2.60
2023-01-18T16:30:55.988Z,2.50
2023-01-18T16:33:43.283Z,2.60
2023-01-18T16:36:41.503Z,2.50
2023-01-18T16:39:30.707Z,2.50
2023-01-18T16:42:23.873Z,2.60
2023-01-18T16:45:14.914Z,2.50
2023-01-18T16:48:02.851Z,2.40
2023-01-18T16:50:50.639Z,2.40
2023-01-18T16:53:38.316Z,2.30
2023-01-18T16:56:26.714Z,2.30
2023-01-18T16:59:17.829Z,2.40
2023-01-18T17:02:05.441Z,2.40
2023-01-18T17:04:52.928Z,2.40
2023-01-18T17:07:39.911Z,2.50
2023-01-18T17:10:35.009Z,2.30
2023-01-18T17:13:23.726Z,2.20
2023-01-18T17:16:16.807Z,2.20
2023-01-18T17:19:04.075Z,2.20
2023-01-18T17:21:51.947Z,2.30
2023-01-18T17:24:39.028Z,2.30
2023-01-18T17:27:26.317Z,2.20
2023-01-18T17:30:16.983Z,2.10
2023-01-18T17:33:04.327Z,2.10
2023-01-18T17:35:53.434Z,2.10
2023-01-18T17:38:40.564Z,2.10
2023-01-18T17:41:29.256Z,2.20
2023-01-18T17:44:17.306Z,2.20
2023-01-18T17:47:06.288Z,2.20
2023-01-18T17:49:53.845Z,2.20
2023-01-18T17:52:42.021Z,2.20
2023-01-18T17:55:34.693Z,2.20
2023-01-18T17:58:22.448Z,2.20
2023-01-18T18:01:11.968Z,2.30
2023-01-18T18:04:00.568Z,2.30
2023-01-18T18:06:58.536Z,2.20
2023-01-18T18:09:45.983Z,2.20
2023-01-18T18:12:35.315Z,2.10
2023-01-18T18:15:23.476Z,2.10
2023-01-18T18:18:22.664Z,2.00
2023-01-18T18:21:12.181Z,2.10
2023-01-18T18:23:59.568Z,2.00
2023-01-18T18:26:46.881Z,2.00
2023-01-18T18:29:34.161Z,1.90
2023-01-18T18:32:21.322Z,1.90
2023-01-18T18:35:24.558Z,1.80
2023-01-18T18:38:15.347Z,1.80
2023-01-18T18:41:05.014Z,1.70
2023-01-18T18:43:52.428Z,1.70
2023-01-18T18:46:39.830Z,1.70
2023-01-18T18:49:27.140Z,1.70
2023-01-18T18:52:14.651Z,1.60
2023-01-18T18:55:03.531Z,1.60
2023-01-18T18:57:51.147Z,1.60
2023-01-18T19:00:38.617Z,1.50
2023-01-18T19:03:26.195Z,1.50
2023-01-18T19:06:13.725Z,1.50
2023-01-18T19:09:01.240Z,1.50
2023-01-18T19:11:55.165Z,1.40
2023-01-18T19:14:42.666Z,1.40
2023-01-18T19:17:31.499Z,1.40
2023-01-18T19:20:20.553Z,1.30
2023-01-18T19:23:08.231Z,1.30
2023-01-18T19:25:55.476Z,1.30
2023-01-18T19:28:44.486Z,1.30
2023-01-18T19:31:31.864Z,1.30
2023-01-18T19:34:21.107Z,1.30
2023-01-18T19:37:08.706Z,1.30
2023-01-18T19:39:56.122Z,1.30
2023-01-18T19:42:44.389Z,1.30
2023-01-18T19:45:33.445Z,1.30
2023-01-18T19:48:20.617Z,1.30
2023-01-18T19:51:20.755Z,1.20
2023-01-18T19:54:11.027Z,1.20
2023-01-18T19:56:58.055Z,1.10
2023-01-18T19:59:45.524Z,1.10
2023-01-18T20:02:34.492Z,0.90
2023-01-18T20:05:21.683Z,0.90
2023-01-18T20:08:08.884Z,0.90
2023-01-18T20:10:56.495Z,1.00
2023-01-18T20:13:49.098Z,1.00
2023-01-18T20:16:36.790Z,1.20
2023-01-18T20:19:25.499Z,0.80
2023-01-18T20:22:12.831Z,0.70
2023-01-18T20:25:00.117Z,0.50
2023-01-18T20:27:47.347Z,0.50
2023-01-18T20:30:34.693Z,0.50
2023-01-18T20:33:22.068Z,0.60
2023-01-18T20:36:11.079Z,0.60
2023-01-18T20:38:58.674Z,0.60
2023-01-18T20:41:46.267Z,0.60
2023-01-18T20:44:33.383Z,0.60
2023-01-18T20:47:20.951Z,0.60
2023-01-18T20:50:09.656Z,0.50
2023-01-18T20:52:59.192Z,0.40
2023-01-18T20:55:46.871Z,0.40
2023-01-18T20:58:34.430Z,0.40
2023-01-18T21:01:22.277Z,0.40
2023-01-18T21:04:10.001Z,0.40
2023-01-18T21:06:58.140Z,0.40
2023-01-18T21:09:47.029Z,0.40
2023-01-18T21:12:34.321Z,0.30
2023-01-18T21:15:21.666Z,0.30
2023-01-18T21:18:09.308Z,0.30
2023-01-18T21:20:58.128Z,0.10
2023-01-18T21:23:45.303Z,0.20
2023-01-18T21:26:36.019Z,0.10
2023-01-18T21:29:23.371Z,0.10
2023-01-18T21:32:10.834Z,0.00
2023-01-18T21:34:58.352Z,0.10
2023-01-18T21:37:45.646Z,0.10
2023-01-18T21:40:32.896Z,0.00
2023-01-18T21:43:40.526Z,0.00
2023-01-18T21:46:27.703Z,-0.10
2023-01-18T21:49:42.981Z,-0.10
2023-01-18T21:52:56.076Z,-0.10
2023-01-18T21:55:43.540Z,-0.10
2023-01-18T21:58:49.650Z,-0.10
2023-01-18T22:01:39.233Z,-0.10
2023-01-18T22:04:43.910Z,-0.20
2023-01-18T22:07:33.803Z,-0.30
2023-01-18T22:10:20.996Z,-0.30
2023-01-18T22:13:08.332Z,-0.30
2023-01-18T22:15:57.224Z,-0.30
2023-01-18T22:18:44.329Z,-0.30
2023-01-18T22:21:32.152Z,-0.30
2023-01-18T22:24:19.675Z,-0.30
2023-01-18T22:27:07.176Z,-0.30
2023-01-18T22:29:54.559Z,-0.30
2023-01-18T22:32:43.366Z,-0.30
2023-01-18T22:35:31.773Z,-0.40
2023-01-18T22:38:19.250Z,-0.40
2023-01-18T22:41:08.725Z,-0.40
2023-01-18T22:43:57.233Z,-0.40
2023-01-18T22:46:44.970Z,-0.40
2023-01-18T22:49:34.060Z,-0.40
2023-01-18T22:52:21.395Z,-0.50
2023-01-18T22:55:09.671Z,-0.40
2023-01-18T22:57:57.336Z,-0.50
2023-01-18T23:00:45.831Z,-0.50
2023-01-18T23:03:32.971Z,-0.40
2023-01-18T23:06:22.244Z,-0.50
2023-01-18T23:09:10.154Z,-0.50
2023-01-18T23:11:57.446Z,-0.50
2023-01-18T23:15:02.176Z,-0.40
2023-01-18T23:17:49.942Z,-0.50
2023-01-18T23:20:37.806Z,-0.50
2023-01-18T23:23:26.823Z,-0.50
2023-01-18T23:26:14.262Z,-0.50
2023-01-18T23:29:01.873Z,-0.50
2023-01-18T23:31:49.082Z,-0.50
2023-01-18T23:34:36.440Z,-0.60
2023-01-18T23:37:24.340Z,-0.60
2023-01-18T23:40:31.209Z,-0.70
2023-01-18T23:43:35.804Z,-0.70
2023-01-18T23:46:40.247Z,-0.70
2023-01-18T23:49:44.661Z,-0.70
2023-01-18T23:52:48.939Z,-0.70
2023-01-18T23:55:37.497Z,-0.80
2023-01-18T23:58:25.002Z,-0.80
